createdAt,value
2022-08-10T00:01:06.787Z,2.20
2022-08-10T00:03:39.252Z,2.45
2022-08-10T00:06:09.220Z,2.22
2022-08-10T00:08:38.994Z,2.30
2022-08-10T00:11:16.775Z,2.33
2022-08-10T00:13:46.935Z,2.50
2022-08-10T00:16:16.810Z,2.80
2022-08-10T00:18:49.229Z,3.15
2022-08-10T00:21:19.265Z,2.90
2022-08-10T00:23:49.053Z,2.92
2022-08-10T00:26:18.796Z,3.15
2022-08-10T00:28:48.534Z,3.00
2022-08-10T00:31:18.369Z,3.00
2022-08-10T00:33:50.758Z,2.67
2022-08-10T00:36:20.515Z,3.20
2022-08-10T00:38:50.238Z,2.80
2022-08-10T00:41:20.033Z,3.10
2022-08-10T00:43:49.821Z,3.30
2022-08-10T00:46:19.575Z,3.65
2022-08-10T00:49:00.316Z,3.53
2022-08-10T00:51:48.367Z,3.67
2022-08-10T00:54:24.371Z,3.17
2022-08-10T00:57:17.610Z,3.33
2022-08-10T00:59:59.551Z,3.50
2022-08-10T01:02:32.567Z,5.15
2022-08-10T01:05:09.527Z,3.42
2022-08-10T01:07:59.442Z,4.40
2022-08-10T01:10:36.944Z,5.57
2022-08-10T01:13:13.556Z,4.65
2022-08-10T01:15:55.694Z,5.25
2022-08-10T01:18:37.536Z,4.60
2022-08-10T01:21:53.299Z,4.55
2022-08-10T01:24:55.387Z,4.78
2022-08-10T01:27:31.870Z,5.20
2022-08-10T01:30:07.728Z,5.10
2022-08-10T01:32:53.074Z,5.72
2022-08-10T01:35:30.085Z,6.82
2022-08-10T01:38:11.059Z,6.47
2022-08-10T01:40:47.861Z,6.63
2022-08-10T01:43:20.476Z,6.25
2022-08-10T01:45:58.694Z,6.43
2022-08-10T01:48:32.111Z,6.45
2022-08-10T01:51:10.301Z,7.80
2022-08-10T01:53:47.359Z,6.57
2022-08-10T01:56:19.319Z,8.25
2022-08-10T01:58:52.507Z,7.07
2022-08-10T02:01:28.382Z,7.10
2022-08-10T02:04:05.923Z,9.25
2022-08-10T02:06:41.360Z,7.28
2022-08-10T02:09:12.018Z,6.60
2022-08-10T02:11:55.979Z,7.32
2022-08-10T02:14:37.286Z,6.95
2022-08-10T02:17:59.158Z,6.30
2022-08-10T02:20:08.420Z,6.00
2022-08-10T02:22:40.923Z,7.22
2022-08-10T02:25:41.574Z,6.65
2022-08-10T02:28:04.073Z,6.28
2022-08-10T02:30:35.620Z,6.43
2022-08-10T02:33:09.826Z,6.18
2022-08-10T02:35:55.326Z,6.18
2022-08-10T02:38:58.409Z,6.53
2022-08-10T02:45:14.106Z,6.03
2022-08-10T02:45:29.727Z,7.38
2022-08-10T02:47:25.102Z,6.10
2022-08-10T02:50:05.139Z,6.45
2022-08-10T02:52:41.548Z,7.43
2022-08-10T02:55:19.481Z,8.00
2022-08-10T02:58:17.036Z,7.20
2022-08-10T03:00:52.698Z,6.15
2022-08-10T03:03:25.527Z,6.55
2022-08-10T03:06:02.598Z,6.75
2022-08-10T03:08:36.850Z,6.93
2022-08-10T03:11:09.615Z,8.30
2022-08-10T03:13:40.373Z,7.22
2022-08-10T03:16:12.745Z,8.15
2022-08-10T03:18:43.172Z,8.23
2022-08-10T03:21:17.448Z,8.55
2022-08-10T03:23:48.353Z,9.32
2022-08-10T03:26:20.608Z,9.30
2022-08-10T03:28:51.632Z,8.20
2022-08-10T03:31:21.578Z,7.45
2022-08-10T03:33:51.882Z,8.60
2022-08-10T03:36:44.087Z,8.38
2022-08-10T03:39:14.629Z,9.40
2022-08-10T03:41:53.512Z,8.10
2022-08-10T03:44:28.437Z,8.63
2022-08-10T03:47:02.223Z,8.85
2022-08-10T03:49:33.902Z,9.98
2022-08-10T03:52:06.893Z,8.32
2022-08-10T03:54:37.428Z,8.68
2022-08-10T03:57:07.767Z,9.52
2022-08-10T03:59:38.142Z,8.50
2022-08-10T04:02:46.910Z,8.10
2022-08-10T04:04:58.901Z,9.23
2022-08-10T04:07:31.554Z,7.32
2022-08-10T04:10:01.332Z,8.00
2022-08-10T04:12:32.991Z,8.32
2022-08-10T04:15:02.794Z,8.00
2022-08-10T04:18:03.409Z,7.25
2022-08-10T04:20:34.228Z,8.90
2022-08-10T04:23:11.673Z,8.48
2022-08-10T04:25:43.126Z,7.35
2022-08-10T04:28:14.001Z,7.80
2022-08-10T04:30:46.131Z,6.78
2022-08-10T04:33:20.086Z,7.50
2022-08-10T04:35:50.882Z,6.93
2022-08-10T04:38:25.070Z,6.68
2022-08-10T04:40:55.438Z,7.25
2022-08-10T04:43:25.395Z,6.82
2022-08-10T04:45:55.673Z,6.80
2022-08-10T04:48:43.324Z,8.40
2022-08-10T04:51:19.420Z,7.20
2022-08-10T04:54:05.111Z,6.90
2022-08-10T04:56:38.297Z,6.38
2022-08-10T04:59:09.289Z,6.57
2022-08-10T05:02:22.776Z,6.28
2022-08-10T05:04:36.730Z,5.90
2022-08-10T05:07:15.920Z,6.22
2022-08-10T05:10:01.273Z,6.15
2022-08-10T05:12:36.860Z,5.90
2022-08-10T05:15:12.841Z,5.70
2022-08-10T05:18:09.419Z,5.97
2022-08-10T05:20:33.803Z,5.80
2022-08-10T05:23:03.559Z,5.20
2022-08-10T05:25:38.205Z,5.40
2022-08-10T05:28:09.008Z,5.25
2022-08-10T05:30:38.815Z,4.95
2022-08-10T05:33:09.077Z,5.38
2022-08-10T05:35:51.931Z,4.88
2022-08-10T05:38:29.711Z,4.57
2022-08-10T05:41:03.060Z,3.88
2022-08-10T05:43:32.806Z,3.45
2022-08-10T05:46:19.999Z,3.70
2022-08-10T05:48:59.182Z,4.13
2022-08-10T05:51:30.849Z,3.80
2022-08-10T05:54:06.014Z,3.72
2022-08-10T05:56:56.422Z,3.50
2022-08-10T06:00:31.132Z,3.80
2022-08-10T06:02:32.158Z,3.63
2022-08-10T06:05:09.125Z,3.85
2022-08-10T06:07:43.203Z,3.25
2022-08-10T06:10:19.662Z,3.17
2022-08-10T06:13:26.800Z,3.40
2022-08-10T06:16:04.154Z,4.18
2022-08-10T06:18:34.466Z,3.67
2022-08-10T06:21:05.052Z,3.30
2022-08-10T06:23:35.844Z,3.15
2022-08-10T06:26:11.887Z,3.20
2022-08-10T06:29:02.047Z,3.58
2022-08-10T06:31:47.588Z,3.22
2022-08-10T06:34:23.465Z,3.05
2022-08-10T06:36:55.520Z,3.78
2022-08-10T06:39:35.245Z,2.80
2022-08-10T06:42:16.856Z,3.05
2022-08-10T06:44:57.393Z,3.50
2022-08-10T06:47:34.053Z,3.10
2022-08-10T06:50:13.346Z,3.40
2022-08-10T06:52:45.114Z,3.50
2022-08-10T06:55:18.660Z,3.22
2022-08-10T06:57:59.891Z,3.50
2022-08-10T07:00:34.837Z,3.45
2022-08-10T07:03:09.551Z,2.60
2022-08-10T07:05:46.848Z,3.17
2022-08-10T07:08:20.920Z,3.22
2022-08-10T07:10:51.953Z,2.80
2022-08-10T07:14:15.361Z,3.78
2022-08-10T07:16:17.287Z,4.55
2022-08-10T07:18:50.695Z,3.50
2022-08-10T07:21:22.270Z,3.70
2022-08-10T07:23:58.775Z,4.57
2022-08-10T07:26:31.898Z,3.53
2022-08-10T07:29:03.611Z,3.70
2022-08-10T07:31:57.273Z,3.75
2022-08-10T07:34:30.024Z,3.30
2022-08-10T07:37:05.131Z,3.72
2022-08-10T07:39:58.276Z,4.30
2022-08-10T07:42:31.781Z,3.75
2022-08-10T07:45:01.949Z,3.70
2022-08-10T07:47:53.648Z,3.35
2022-08-10T07:50:27.331Z,4.03
2022-08-10T07:53:06.106Z,4.32
2022-08-10T07:56:01.409Z,3.67
2022-08-10T07:58:31.899Z,3.72
2022-08-10T08:01:03.052Z,4.10
2022-08-10T08:03:37.005Z,4.55
2022-08-10T08:06:12.135Z,4.15
2022-08-10T08:08:45.918Z,3.90
2022-08-10T08:11:26.036Z,4.10
2022-08-10T08:13:57.927Z,3.15
2022-08-10T08:16:28.915Z,3.45
2022-08-10T08:19:26.790Z,3.60
2022-08-10T08:24:04.648Z,3.10
2022-08-10T08:24:46.044Z,3.08
2022-08-10T08:27:19.843Z,3.58
2022-08-10T08:29:51.215Z,3.25
2022-08-10T08:32:25.137Z,3.50
2022-08-10T08:35:02.311Z,3.20
2022-08-10T08:38:29.590Z,3.50
2022-08-10T08:40:29.459Z,2.90
2022-08-10T08:43:21.786Z,3.78
2022-08-10T08:46:21.399Z,3.88
2022-08-10T08:50:07.483Z,3.30
2022-08-10T08:52:36.351Z,3.42
2022-08-10T08:56:04.768Z,3.28
2022-08-10T08:58:26.125Z,2.95
2022-08-10T09:01:04.959Z,3.17
2022-08-10T09:04:19.876Z,3.35
2022-08-10T09:07:59.375Z,3.47
2022-08-10T09:10:30.338Z,3.83
2022-08-10T09:13:09.955Z,3.30
2022-08-10T09:15:47.135Z,3.08
2022-08-10T09:18:23.821Z,3.90
2022-08-10T09:21:01.850Z,2.83
2022-08-10T09:24:04.818Z,3.58
2022-08-10T09:26:38.432Z,2.92
2022-08-10T09:29:12.810Z,3.40
2022-08-10T09:31:55.759Z,3.53
2022-08-10T09:36:19.793Z,2.63
2022-08-10T09:38:02.504Z,3.00
2022-08-10T09:41:00.890Z,3.47
2022-08-10T09:43:44.985Z,2.65
2022-08-10T09:46:33.450Z,3.95
2022-08-10T09:49:11.842Z,3.30
2022-08-10T09:51:57.057Z,3.65
2022-08-10T09:54:49.947Z,3.42
2022-08-10T09:57:44.352Z,3.63
2022-08-10T10:00:19.233Z,3.78
2022-08-10T10:03:00.715Z,2.38
2022-08-10T10:05:51.869Z,2.00
2022-08-10T10:08:30.831Z,1.70
2022-08-10T10:11:12.515Z,3.83
2022-08-10T10:14:03.881Z,3.20
2022-08-10T10:17:01.111Z,2.67
2022-08-10T10:19:53.993Z,1.77
2022-08-10T10:22:41.903Z,2.47
2022-08-10T10:25:21.475Z,2.85
2022-08-10T10:28:05.682Z,2.38
2022-08-10T10:30:47.002Z,2.42
2022-08-10T10:33:28.216Z,2.22
2022-08-10T10:36:00.184Z,2.00
2022-08-10T10:38:37.036Z,2.15
2022-08-10T10:41:16.838Z,1.50
2022-08-10T10:43:58.969Z,3.75
2022-08-10T10:46:42.339Z,3.92
2022-08-10T10:49:25.697Z,4.68
2022-08-10T10:52:05.628Z,4.38
2022-08-10T10:54:44.485Z,4.43
2022-08-10T10:57:58.561Z,4.30
2022-08-10T11:00:16.095Z,4.43
2022-08-10T11:02:56.296Z,4.90
2022-08-10T11:05:36.824Z,4.13
2022-08-10T11:08:14.754Z,4.55
2022-08-10T11:10:52.857Z,3.80
2022-08-10T11:14:27.176Z,4.13
2022-08-10T11:16:27.577Z,4.97
2022-08-10T11:19:02.521Z,5.13
2022-08-10T11:21:48.408Z,5.28
2022-08-10T11:24:42.692Z,4.53
2022-08-10T11:27:24.703Z,4.45
2022-08-10T11:30:02.554Z,4.53
2022-08-10T11:32:44.091Z,4.30
2022-08-10T11:35:23.634Z,4.22
2022-08-10T11:38:28.393Z,4.05
2022-08-10T11:41:05.588Z,7.68
2022-08-10T11:44:03.812Z,3.78
2022-08-10T11:46:36.777Z,3.88
2022-08-10T11:49:11.494Z,3.78
2022-08-10T11:51:47.212Z,2.97
2022-08-10T11:54:28.993Z,3.60
2022-08-10T11:57:02.951Z,3.53
2022-08-10T11:59:47.646Z,4.60
2022-08-10T12:02:19.464Z,3.65
2022-08-10T12:04:58.513Z,3.65
2022-08-10T12:08:54.555Z,3.55
2022-08-10T12:10:24.565Z,3.63
2022-08-10T12:13:05.103Z,3.28
2022-08-10T12:15:40.417Z,3.97
2022-08-10T12:18:16.938Z,3.97
2022-08-10T12:20:51.810Z,3.70
2022-08-10T12:23:28.594Z,4.20
2022-08-10T12:26:08.907Z,3.80
2022-08-10T12:28:49.813Z,3.92
2022-08-10T12:31:24.508Z,3.97
2022-08-10T12:34:16.220Z,3.78
2022-08-10T12:36:51.324Z,3.50
2022-08-10T12:39:28.501Z,3.53
2022-08-10T12:42:07.593Z,3.47
2022-08-10T12:44:45.824Z,3.22
2022-08-10T12:47:24.975Z,3.33
2022-08-10T12:50:29.336Z,3.20
2022-08-10T12:53:04.816Z,3.72
2022-08-10T12:55:40.113Z,2.53
2022-08-10T12:59:00.271Z,3.80
2022-08-10T13:01:17.268Z,3.97
2022-08-10T13:04:20.533Z,2.85
2022-08-10T13:06:46.379Z,3.13
2022-08-10T13:09:17.049Z,3.08
2022-08-10T13:12:36.151Z,3.33
2022-08-10T13:14:49.576Z,3.58
2022-08-10T13:17:38.766Z,3.08
2022-08-10T13:20:17.740Z,2.80
2022-08-10T13:22:50.317Z,2.90
2022-08-10T13:25:26.879Z,2.95
2022-08-10T13:27:59.076Z,3.92
2022-08-10T13:30:37.681Z,2.83
2022-08-10T13:33:08.969Z,2.70
2022-08-10T13:35:40.365Z,3.13
2022-08-10T13:38:13.183Z,3.47
2022-08-10T13:40:43.966Z,3.22
2022-08-10T13:43:15.157Z,3.22
2022-08-10T13:45:50.326Z,3.08
2022-08-10T13:48:23.541Z,3.00
2022-08-10T13:50:54.823Z,2.58
2022-08-10T13:53:26.569Z,2.85
2022-08-10T13:55:58.812Z,2.67
2022-08-10T13:58:33.344Z,4.10
2022-08-10T14:01:12.981Z,2.60
2022-08-10T14:03:45.394Z,2.63
2022-08-10T14:06:18.788Z,2.85
2022-08-10T14:08:51.527Z,3.25
2022-08-10T14:11:23.327Z,3.30
2022-08-10T14:13:56.461Z,3.33
2022-08-10T14:16:30.369Z,3.40
2022-08-10T14:19:04.245Z,3.00
2022-08-10T14:21:34.158Z,2.97
2022-08-10T14:24:04.037Z,3.08
2022-08-10T14:26:34.852Z,2.50
2022-08-10T14:29:09.518Z,2.90
2022-08-10T14:32:01.633Z,2.60
2022-08-10T14:34:59.561Z,3.05
2022-08-10T14:37:37.566Z,3.10
2022-08-10T14:40:13.047Z,2.70
2022-08-10T14:42:50.068Z,2.53
2022-08-10T14:45:24.985Z,3.25
2022-08-10T14:48:05.981Z,2.60
2022-08-10T14:50:38.446Z,3.08
2022-08-10T14:53:28.323Z,2.45
2022-08-10T14:56:02.105Z,2.70
2022-08-10T14:58:35.989Z,2.80
2022-08-10T15:01:10.659Z,2.90
2022-08-10T15:04:02.033Z,2.75
2022-08-10T15:06:41.863Z,2.70
2022-08-10T15:09:19.665Z,2.75
2022-08-10T15:12:13.200Z,2.22
2022-08-10T15:14:45.122Z,2.50
2022-08-10T15:17:18.802Z,2.72
2022-08-10T15:20:02.936Z,2.15
2022-08-10T15:22:38.447Z,2.40
2022-08-10T15:25:25.298Z,2.20
2022-08-10T15:28:05.302Z,1.95
2022-08-10T15:30:42.994Z,2.25
2022-08-10T15:34:03.525Z,2.13
2022-08-10T15:37:01.965Z,1.83
2022-08-10T15:40:25.860Z,2.20
2022-08-10T15:42:58.688Z,2.67
2022-08-10T15:45:28.891Z,2.53
2022-08-10T15:48:04.028Z,2.13
2022-08-10T15:50:40.667Z,2.30
2022-08-10T15:53:18.849Z,2.30
2022-08-10T15:55:54.278Z,2.22
2022-08-10T15:58:39.522Z,2.30
2022-08-10T16:02:14.543Z,2.00
2022-08-10T16:04:09.248Z,2.28
2022-08-10T16:06:44.668Z,2.00
2022-08-10T16:10:23.426Z,2.30
2022-08-10T16:12:18.630Z,2.40
2022-08-10T16:15:04.422Z,2.42
2022-08-10T16:17:55.298Z,2.40
2022-08-10T16:20:31.363Z,2.90
2022-08-10T16:23:05.795Z,2.38
2022-08-10T16:25:47.887Z,2.30
2022-08-10T16:28:24.320Z,3.17
2022-08-10T16:30:56.781Z,2.30
2022-08-10T16:33:53.881Z,2.35
2022-08-10T16:36:21.506Z,2.20
2022-08-10T16:38:53.452Z,2.25
2022-08-10T16:42:03.487Z,2.40
2022-08-10T16:44:25.737Z,1.98
2022-08-10T16:46:56.204Z,2.42
2022-08-10T16:49:27.643Z,2.25
2022-08-10T16:51:59.484Z,2.63
2022-08-10T16:54:31.009Z,2.53
2022-08-10T16:57:06.519Z,2.50
2022-08-10T16:59:40.634Z,2.10
2022-08-10T17:02:16.133Z,2.10
2022-08-10T17:04:47.834Z,2.10
2022-08-10T17:07:26.098Z,2.38
2022-08-10T17:10:07.833Z,2.00
2022-08-10T17:12:43.027Z,2.10
2022-08-10T17:15:13.657Z,1.95
2022-08-10T17:17:49.072Z,1.70
2022-08-10T17:20:30.841Z,2.03
2022-08-10T17:23:07.258Z,2.10
2022-08-10T17:25:48.962Z,2.20
2022-08-10T17:28:34.782Z,2.40
2022-08-10T17:31:24.096Z,2.20
2022-08-10T17:34:06.076Z,2.47
2022-08-10T17:36:39.572Z,2.35
2022-08-10T17:39:15.412Z,2.75
2022-08-10T17:41:50.929Z,2.58
2022-08-10T17:44:25.662Z,2.55
2022-08-10T17:46:56.616Z,2.38
2022-08-10T17:49:28.929Z,2.20
2022-08-10T17:52:02.742Z,2.22
2022-08-10T17:54:35.546Z,2.60
2022-08-10T17:57:11.447Z,2.63
2022-08-10T17:59:45.092Z,2.50
2022-08-10T18:02:17.629Z,2.88
2022-08-10T18:04:53.013Z,2.80
2022-08-10T18:07:25.690Z,2.90
2022-08-10T18:09:57.447Z,2.70
2022-08-10T18:12:37.959Z,3.00
2022-08-10T18:15:15.040Z,2.60
2022-08-10T18:17:51.050Z,3.10
2022-08-10T18:20:28.150Z,3.15
2022-08-10T18:23:00.183Z,3.08
2022-08-10T18:25:33.893Z,3.00
2022-08-10T18:28:06.724Z,2.90
2022-08-10T18:30:48.980Z,2.80
2022-08-10T18:33:21.067Z,2.80
2022-08-10T18:35:52.865Z,3.40
2022-08-10T18:38:24.264Z,3.28
2022-08-10T18:40:58.672Z,3.25
2022-08-10T18:44:06.029Z,2.75
2022-08-10T18:46:40.091Z,3.45
2022-08-10T18:49:15.297Z,3.05
2022-08-10T18:51:49.020Z,2.60
2022-08-10T18:54:24.245Z,3.05
2022-08-10T18:57:22.674Z,2.80
2022-08-10T19:00:09.723Z,3.15
2022-08-10T19:03:13.041Z,2.78
2022-08-10T19:06:02.040Z,3.30
2022-08-10T19:08:51.598Z,3.50
2022-08-10T19:11:40.164Z,2.97
2022-08-10T19:14:15.922Z,3.00
2022-08-10T19:17:05.267Z,2.78
2022-08-10T19:19:48.933Z,9.10
2022-08-10T19:22:27.216Z,3.40
2022-08-10T19:25:05.853Z,3.05
2022-08-10T19:27:50.921Z,3.30
2022-08-10T19:30:28.898Z,3.13
2022-08-10T19:33:12.144Z,2.90
2022-08-10T19:36:03.868Z,3.15
2022-08-10T19:38:49.752Z,3.30
2022-08-10T19:41:32.481Z,3.55
2022-08-10T19:44:21.766Z,3.42
2022-08-10T19:46:56.827Z,3.33
2022-08-10T19:49:39.955Z,3.80
2022-08-10T19:52:27.694Z,3.58
2022-08-10T19:55:03.191Z,3.30
2022-08-10T19:57:39.494Z,3.55
2022-08-10T20:00:18.863Z,2.67
2022-08-10T20:03:13.264Z,3.35
2022-08-10T20:06:18.148Z,3.30
2022-08-10T20:08:56.736Z,3.10
2022-08-10T20:11:45.487Z,3.22
2022-08-10T20:14:23.083Z,3.70
2022-08-10T20:16:56.000Z,3.40
2022-08-10T20:19:53.097Z,3.17
2022-08-10T20:22:28.998Z,3.67
2022-08-10T20:25:14.014Z,3.05
2022-08-10T20:27:59.858Z,3.20
2022-08-10T20:30:35.402Z,3.25
2022-08-10T20:33:12.245Z,3.20
2022-08-10T20:35:55.108Z,3.60
2022-08-10T20:38:27.475Z,2.97
2022-08-10T20:41:11.547Z,3.75
2022-08-10T20:43:49.275Z,3.17
2022-08-10T20:46:25.590Z,3.72
2022-08-10T20:49:01.813Z,3.70
2022-08-10T20:51:58.296Z,4.18
2022-08-10T20:54:35.385Z,4.70
2022-08-10T20:57:56.672Z,4.47
2022-08-10T21:00:44.054Z,5.13
2022-08-10T21:03:34.877Z,4.72
2022-08-10T21:06:43.572Z,4.95
2022-08-10T21:09:27.375Z,4.60
2022-08-10T21:12:18.201Z,4.40
2022-08-10T21:14:57.051Z,4.07
2022-08-10T21:17:51.043Z,4.53
2022-08-10T21:20:54.648Z,4.45
2022-08-10T21:23:30.510Z,3.97
2022-08-10T21:26:19.420Z,4.25
2022-08-10T21:29:21.201Z,3.75
2022-08-10T21:32:03.492Z,3.95
2022-08-10T21:34:54.522Z,4.40
2022-08-10T21:37:46.341Z,5.07
2022-08-10T21:40:32.120Z,4.43
2022-08-10T21:43:44.447Z,5.25
2022-08-10T21:46:36.362Z,5.07
2022-08-10T21:49:27.427Z,5.28
2022-08-10T21:52:27.500Z,5.18
2022-08-10T21:55:19.045Z,4.88
2022-08-10T21:58:05.823Z,4.53
2022-08-10T22:00:51.436Z,5.32
2022-08-10T22:03:39.956Z,5.30
2022-08-10T22:06:25.688Z,5.60
2022-08-10T22:09:16.157Z,6.13
2022-08-10T22:12:04.701Z,6.20
2022-08-10T22:14:49.482Z,5.68
2022-08-10T22:18:00.637Z,6.18
2022-08-10T22:20:43.726Z,5.60
2022-08-10T22:23:47.854Z,6.85
2022-08-10T22:26:56.553Z,6.50
2022-08-10T22:29:51.573Z,6.80
2022-08-10T22:32:45.376Z,7.45
2022-08-10T22:36:01.273Z,7.80
2022-08-10T22:38:59.848Z,8.57
2022-08-10T22:41:53.529Z,8.52
2022-08-10T22:44:39.678Z,8.93
2022-08-10T22:47:26.651Z,8.95
2022-08-10T22:49:53.873Z,7.85
2022-08-10T22:52:34.483Z,8.38
2022-08-10T22:55:49.845Z,7.57
2022-08-10T22:58:44.002Z,8.30
2022-08-10T23:01:38.889Z,8.57
2022-08-10T23:04:16.220Z,7.40
2022-08-10T23:06:53.444Z,6.70
2022-08-10T23:09:26.642Z,7.30
2022-08-10T23:12:00.701Z,7.78
2022-08-10T23:14:37.849Z,6.88
2022-08-10T23:17:26.683Z,6.18
2022-08-10T23:20:21.466Z,6.93
2022-08-10T23:22:54.965Z,6.50
2022-08-10T23:25:29.071Z,6.85
2022-08-10T23:28:09.065Z,6.63
2022-08-10T23:30:51.469Z,7.05
2022-08-10T23:33:38.122Z,6.70
2022-08-10T23:36:34.637Z,5.80
2022-08-10T23:39:24.467Z,5.85
2022-08-10T23:41:57.116Z,5.93
2022-08-10T23:44:28.444Z,6.18
2022-08-10T23:47:03.825Z,6.05
2022-08-10T23:49:38.834Z,5.97
2022-08-10T23:52:18.277Z,4.97
2022-08-10T23:54:51.679Z,4.90
2022-08-10T23:57:24.613Z,4.90
2022-08-10T23:59:58.332Z,4.85
